Time;durP1;ratioP1;P1;durP2;ratioP2;P2;SDS_P1;SDS_P2;PMS_P1;PMS_P2;Temp;Humidity;BMP_temperature;BMP_pressure;BME280_temperature;BME280_humidity;BME280_pressure;Samples;Min_cycle;Max_cycle;Signal;HPM_P1;HPM_P2
2023/11/22 00:01:06;;;;;;;1.77;1.10;;;0.50;99.90;;;;;;5050524;28;20052;-59
2023/11/22 00:03:33;;;;;;;2.22;2.08;;;0.50;99.90;;;;;;5053708;28;20041;-61
2023/11/22 00:06:01;;;;;;;1.33;1.10;;;0.50;99.90;;;;;;5049602;28;20043;-60
2023/11/22 00:08:29;;;;;;;1.00;0.90;;;0.50;99.90;;;;;;5054953;28;20045;-60
2023/11/22 00:10:56;;;;;;;2.90;1.00;;;0.50;99.90;;;;;;5053595;28;20052;-64
2023/11/22 00:13:23;;;;;;;0.95;0.82;;;0.50;99.90;;;;;;5053452;28;20663;-59
2023/11/22 00:15:50;;;;;;;1.33;0.80;;;0.50;99.90;;;;;;5053396;28;20362;-60
2023/11/22 00:18:17;;;;;;;1.75;0.88;;;0.50;99.90;;;;;;5052472;28;20033;-60
2023/11/22 00:20:47;;;;;;;1.40;1.05;;;0.50;99.90;;;;;;5046271;28;20048;-65
2023/11/22 00:23:14;;;;;;;1.63;1.00;;;0.50;99.90;;;;;;5051752;28;20037;-61
2023/11/22 00:25:42;;;;;;;1.05;0.80;;;0.40;99.90;;;;;;5036745;28;20041;-59
2023/11/22 00:28:09;;;;;;;1.17;0.95;;;0.40;99.90;;;;;;5058509;28;20123;-60
2023/11/22 00:30:36;;;;;;;1.73;1.48;;;0.40;99.90;;;;;;5051474;28;20076;-64
2023/11/22 00:33:04;;;;;;;1.80;1.23;;;0.40;99.90;;;;;;5051203;28;20044;-60
2023/11/22 00:35:31;;;;;;;0.88;0.80;;;0.30;99.90;;;;;;5016079;28;20161;-60
2023/11/22 00:37:58;;;;;;;3.55;1.40;;;0.30;99.90;;;;;;5049744;28;20095;-60
2023/11/22 00:40:25;;;;;;;0.85;0.75;;;0.20;99.90;;;;;;5034042;28;20459;-62
2023/11/22 00:42:52;;;;;;;1.27;0.75;;;0.20;99.90;;;;;;5054264;28;20049;-60
2023/11/22 00:45:19;;;;;;;1.85;0.88;;;0.20;99.90;;;;;;5048675;28;20053;-63
2023/11/22 00:47:46;;;;;;;1.73;1.15;;;0.10;99.90;;;;;;5039013;28;20719;-62
2023/11/22 00:50:13;;;;;;;1.05;0.90;;;0.10;99.90;;;;;;5048670;28;20044;-60
2023/11/22 00:52:44;;;;;;;1.33;0.82;;;0.10;99.90;;;;;;5053076;28;20048;-63
2023/11/22 00:55:11;;;;;;;1.20;0.85;;;0.20;99.90;;;;;;5050027;28;20040;-65
2023/11/22 00:57:39;;;;;;;1.08;0.80;;;0.10;99.90;;;;;;5056702;28;20123;-62
2023/11/22 01:00:09;;;;;;;1.02;0.85;;;0.10;99.90;;;;;;5053468;28;20047;-62
2023/11/22 01:02:39;;;;;;;1.23;1.13;;;0.10;99.90;;;;;;5054206;28;20131;-66
2023/11/22 01:05:11;;;;;;;1.30;1.20;;;0.10;99.90;;;;;;5053584;28;20047;-61
2023/11/22 01:07:39;;;;;;;2.67;0.77;;;0.10;99.90;;;;;;5060901;28;20052;-62
2023/11/22 01:10:07;;;;;;;1.40;0.82;;;0.10;99.90;;;;;;5067645;28;20593;-63
2023/11/22 01:12:34;;;;;;;5.28;3.88;;;0.10;99.90;;;;;;5054598;28;20551;-60
2023/11/22 01:15:02;;;;;;;0.70;0.47;;;0.10;99.90;;;;;;5050898;28;20041;-62
2023/11/22 01:17:47;;;;;;;1.40;0.70;;;0.20;99.90;;;;;;5047171;28;20086;-63
2023/11/22 01:20:14;;;;;;;2.05;0.88;;;0.30;99.90;;;;;;5053183;28;20033;-59
2023/11/22 01:22:42;;;;;;;1.20;0.73;;;0.40;99.90;;;;;;5049874;28;20045;-60
2023/11/22 01:25:09;;;;;;;0.68;0.52;;;0.60;99.90;;;;;;5055649;28;20372;-64
2023/11/22 01:27:36;;;;;;;1.00;0.50;;;0.70;99.90;;;;;;5066347;28;20111;-61
2023/11/22 01:30:03;;;;;;;0.70;0.52;;;0.70;99.90;;;;;;5049404;28;20048;-59
2023/11/22 01:32:30;;;;;;;3.55;1.13;;;0.70;99.90;;;;;;5048365;28;20070;-61
2023/11/22 01:34:58;;;;;;;2.92;1.25;;;0.60;99.90;;;;;;5030823;28;20048;-61
2023/11/22 01:37:27;;;;;;;1.25;0.93;;;0.40;99.90;;;;;;5033316;28;20740;-60
2023/11/22 01:39:55;;;;;;;1.05;0.93;;;0.30;99.90;;;;;;5030434;28;20048;-60
2023/11/22 01:42:23;;;;;;;1.13;1.02;;;0.20;99.90;;;;;;5032032;28;20056;-60
2023/11/22 01:44:51;;;;;;;1.83;0.98;;;0.10;99.90;;;;;;5048745;28;20049;-62
2023/11/22 01:47:18;;;;;;;1.67;1.33;;;0.00;99.90;;;;;;5047996;28;20388;-60
2023/11/22 01:49:46;;;;;;;1.13;1.02;;;-0.10;99.90;;;;;;5055815;28;20513;-63
2023/11/22 01:52:13;;;;;;;2.03;1.33;;;-0.20;99.90;;;;;;5050225;28;20036;-59
2023/11/22 01:54:42;;;;;;;2.03;1.10;;;-0.20;99.90;;;;;;5026501;28;20598;-61
2023/11/22 01:57:10;;;;;;;1.02;0.93;;;-0.20;99.90;;;;;;5048477;28;20132;-59
2023/11/22 01:59:38;;;;;;;1.27;1.15;;;-0.30;99.90;;;;;;5037409;28;20546;-63
2023/11/22 02:02:06;;;;;;;3.08;1.13;;;-0.40;99.90;;;;;;5062933;28;20045;-60
2023/11/22 02:04:33;;;;;;;2.55;1.45;;;-0.40;99.90;;;;;;5035578;28;20501;-66
2023/11/22 02:07:03;;;;;;;1.65;0.88;;;-0.40;99.90;;;;;;5060928;28;20052;-60
2023/11/22 02:09:30;;;;;;;0.90;0.85;;;-0.40;99.90;;;;;;5066115;28;20847;-59
2023/11/22 02:11:57;;;;;;;1.10;1.00;;;-0.30;99.90;;;;;;5069258;28;20037;-67
2023/11/22 02:14:24;;;;;;;2.97;1.00;;;-0.40;99.90;;;;;;5029626;28;20495;-60
2023/11/22 02:16:51;;;;;;;0.98;0.80;;;-0.20;99.90;;;;;;5049405;28;20045;-60
2023/11/22 02:19:18;;;;;;;0.32;0.32;;;-0.10;99.90;;;;;;5051978;28;20048;-62
2023/11/22 02:21:45;;;;;;;0.73;0.65;;;0.10;99.90;;;;;;5065029;28;20052;-63
2023/11/22 02:24:13;;;;;;;0.57;0.38;;;0.30;99.90;;;;;;5050217;28;20438;-60
2023/11/22 02:26:45;;;;;;;0.50;0.45;;;0.50;99.90;;;;;;5048696;28;20561;-63
2023/11/22 02:29:14;;;;;;;0.40;0.40;;;0.50;99.90;;;;;;5048087;28;20037;-61
2023/11/22 02:31:42;;;;;;;0.63;0.50;;;0.70;99.90;;;;;;5052649;28;20050;-60
2023/11/22 02:34:10;;;;;;;0.52;0.30;;;0.70;99.90;;;;;;5048446;28;20037;-62
2023/11/22 02:36:37;;;;;;;0.40;0.40;;;0.70;99.90;;;;;;5050363;28;20116;-68
2023/11/22 02:39:04;;;;;;;0.35;0.30;;;0.80;99.90;;;;;;5034073;28;20135;-59
2023/11/22 02:41:31;;;;;;;1.95;0.40;;;0.80;99.90;;;;;;5052032;28;20139;-60
2023/11/22 02:43:59;;;;;;;2.65;0.57;;;0.90;99.90;;;;;;5050691;28;20103;-62
2023/11/22 02:46:27;;;;;;;0.40;0.20;;;1.00;99.90;;;;;;5054346;28;20107;-62
2023/11/22 02:48:54;;;;;;;0.85;0.40;;;1.10;99.90;;;;;;5047995;28;20041;-59
2023/11/22 02:51:22;;;;;;;1.05;0.73;;;1.10;99.90;;;;;;5051865;28;20044;-62
2023/11/22 02:53:49;;;;;;;0.40;0.38;;;1.00;99.90;;;;;;5032586;28;20065;-64
2023/11/22 02:56:17;;;;;;;1.45;0.75;;;1.00;99.90;;;;;;5050858;28;20067;-60
2023/11/22 02:58:44;;;;;;;0.82;0.52;;;1.00;99.90;;;;;;5049998;28;20068;-61
2023/11/22 03:01:11;;;;;;;1.50;0.60;;;0.90;99.90;;;;;;5050100;28;20086;-60
2023/11/22 03:03:39;;;;;;;0.60;0.40;;;0.80;99.90;;;;;;5055375;28;20729;-65
2023/11/22 03:06:06;;;;;;;1.52;0.70;;;0.70;99.90;;;;;;5055258;28;20387;-59
2023/11/22 03:08:33;;;;;;;1.23;0.80;;;0.50;99.90;;;;;;5051604;28;20052;-60
2023/11/22 03:11:02;;;;;;;1.02;0.82;;;0.30;99.90;;;;;;5017295;28;20394;-61
2023/11/22 03:13:29;;;;;;;1.75;1.10;;;0.20;99.90;;;;;;5053597;28;20045;-61
2023/11/22 03:15:57;;;;;;;0.73;0.70;;;0.00;99.90;;;;;;5054392;28;20045;-63
2023/11/22 03:18:23;;;;;;;1.02;1.00;;;-0.10;99.90;;;;;;5050724;28;20053;-61
2023/11/22 03:20:54;;;;;;;0.98;0.88;;;-0.20;99.90;;;;;;5049139;28;20040;-63
2023/11/22 03:23:21;;;;;;;2.00;1.45;;;-0.20;99.90;;;;;;5035352;28;20051;-61
2023/11/22 03:25:48;;;;;;;1.33;0.70;;;-0.30;99.90;;;;;;5053461;28;20072;-61
2023/11/22 03:28:15;;;;;;;1.45;1.10;;;-0.40;99.90;;;;;;5025632;28;20076;-60
2023/11/22 03:30:42;;;;;;;1.33;1.08;;;-0.50;99.90;;;;;;5049038;28;20494;-61
2023/11/22 03:33:09;;;;;;;1.00;0.90;;;-0.50;99.90;;;;;;5056044;28;20045;-65
2023/11/22 03:35:36;;;;;;;1.02;0.82;;;-0.60;99.90;;;;;;5052785;28;20052;-60
2023/11/22 03:38:03;;;;;;;1.30;1.17;;;-0.60;99.90;;;;;;5037000;28;20045;-62
2023/11/22 03:40:30;;;;;;;1.85;1.23;;;-0.70;99.90;;;;;;5054468;28;20451;-59
2023/11/22 03:42:57;;;;;;;1.10;1.00;;;-0.70;99.90;;;;;;5055102;28;20364;-62
2023/11/22 03:45:24;;;;;;;1.02;0.88;;;-0.80;99.90;;;;;;5052314;28;20076;-60
2023/11/22 03:47:52;;;;;;;1.42;1.20;;;-0.80;99.90;;;;;;5056672;28;20438;-61
2023/11/22 03:50:20;;;;;;;1.60;1.45;;;-0.90;99.90;;;;;;5054544;28;20051;-63
2023/11/22 03:52:47;;;;;;;1.85;1.25;;;-0.90;99.90;;;;;;5037609;28;20102;-66
2023/11/22 03:55:14;;;;;;;2.33;1.10;;;-1.00;99.90;;;;;;5054922;28;20080;-60
2023/11/22 03:57:41;;;;;;;1.90;1.42;;;-1.00;99.90;;;;;;5049517;28;20131;-62
2023/11/22 04:00:09;;;;;;;1.92;1.48;;;-1.00;99.90;;;;;;5051952;28;20051;-61
2023/11/22 04:02:39;;;;;;;1.60;1.50;;;-1.10;99.90;;;;;;5056824;28;20052;-63
2023/11/22 04:05:07;;;;;;;2.22;2.03;;;-1.20;99.90;;;;;;5052569;28;20140;-60
2023/11/22 04:07:34;;;;;;;3.15;1.98;;;-1.20;99.90;;;;;;5059993;28;20099;-61
2023/11/22 04:10:01;;;;;;;3.05;1.95;;;-1.30;99.90;;;;;;5052162;28;20087;-62
2023/11/22 04:12:28;;;;;;;2.08;1.67;;;-1.30;99.90;;;;;;5051967;28;20045;-61
2023/11/22 04:14:55;;;;;;;3.72;2.28;;;-1.30;99.90;;;;;;5056672;28;20099;-59
2023/11/22 04:17:22;;;;;;;2.10;1.90;;;-1.40;99.90;;;;;;5054243;28;20140;-61
2023/11/22 04:19:49;;;;;;;2.38;2.17;;;-1.40;99.90;;;;;;5053461;28;20116;-62
2023/11/22 04:22:16;;;;;;;3.28;2.50;;;-1.40;99.90;;;;;;5055273;28;20111;-61
2023/11/22 04:24:44;;;;;;;3.67;2.10;;;-1.40;99.90;;;;;;5053677;28;20040;-62
2023/11/22 04:27:11;;;;;;;4.60;2.60;;;-1.40;99.90;;;;;;5049022;28;20061;-62
2023/11/22 04:29:38;;;;;;;3.08;1.90;;;-1.40;99.90;;;;;;5055688;28;20036;-64
2023/11/22 04:32:06;;;;;;;2.58;1.80;;;-1.40;99.90;;;;;;5052220;28;20044;-62
2023/11/22 04:34:32;;;;;;;2.42;1.95;;;-1.40;99.90;;;;;;5056925;28;20045;-60
2023/11/22 04:36:59;;;;;;;2.20;1.90;;;-1.40;99.90;;;;;;5051728;28;20107;-62
2023/11/22 04:39:26;;;;;;;2.67;2.20;;;-1.40;99.90;;;;;;5055211;28;20049;-61
2023/11/22 04:41:53;;;;;;;4.05;2.20;;;-1.40;99.90;;;;;;5053487;28;20033;-63
2023/11/22 04:44:20;;;;;;;2.17;2.00;;;-1.40;99.90;;;;;;5051523;28;20045;-62
2023/11/22 04:46:47;;;;;;;3.60;2.10;;;-1.40;99.90;;;;;;5061914;28;20056;-59
2023/11/22 04:49:14;;;;;;;3.20;1.77;;;-1.50;99.90;;;;;;5050544;28;20075;-60
2023/11/22 04:51:43;;;;;;;4.85;1.90;;;-1.50;99.90;;;;;;5048620;28;20592;-66
2023/11/22 04:54:10;;;;;;;5.28;1.85;;;-1.50;99.90;;;;;;5055503;28;20040;-60
2023/11/22 04:56:37;;;;;;;2.17;1.85;;;-1.60;99.90;;;;;;5052663;28;20049;-60
2023/11/22 04:59:03;;;;;;;2.47;2.20;;;-1.60;99.90;;;;;;5057831;28;20477;-60
2023/11/22 05:01:33;;;;;;;2.05;1.83;;;-1.60;99.90;;;;;;5051946;28;20048;-60
2023/11/22 05:04:01;;;;;;;6.57;2.25;;;-1.60;99.90;;;;;;5047146;28;20430;-62
2023/11/22 05:06:29;;;;;;;3.60;2.17;;;-1.60;99.90;;;;;;5048351;28;20037;-59
2023/11/22 05:08:56;;;;;;;2.13;1.80;;;-1.70;99.90;;;;;;5053572;28;20162;-61
2023/11/22 05:11:23;;;;;;;2.67;1.73;;;-1.70;99.90;;;;;;5044119;28;20056;-62
2023/11/22 05:13:50;;;;;;;2.10;1.77;;;-1.70;99.90;;;;;;5056696;28;20108;-60
2023/11/22 05:16:17;;;;;;;1.55;1.42;;;-1.70;99.90;;;;;;5046104;28;20072;-60
2023/11/22 05:18:45;;;;;;;4.45;1.98;;;-1.70;99.90;;;;;;5048006;28;20107;-61
2023/11/22 05:21:12;;;;;;;4.72;2.53;;;-1.70;99.90;;;;;;5051263;28;20053;-61
2023/11/22 05:23:39;;;;;;;3.65;1.70;;;-1.70;99.90;;;;;;5053497;28;20091;-62
2023/11/22 05:26:09;;;;;;;4.53;2.13;;;-1.60;99.90;;;;;;5049112;28;20651;-60
2023/11/22 05:28:36;;;;;;;1.77;1.45;;;-1.50;99.90;;;;;;5050030;28;20053;-65
2023/11/22 05:31:03;;;;;;;2.90;1.63;;;-1.40;99.90;;;;;;5048105;28;20087;-62
2023/11/22 05:33:31;;;;;;;2.85;1.85;;;-1.40;99.90;;;;;;5055464;28;20049;-61
2023/11/22 05:35:58;;;;;;;4.28;1.30;;;-1.40;99.90;;;;;;5046188;28;20143;-61
2023/11/22 05:38:26;;;;;;;5.63;1.70;;;-1.40;99.90;;;;;;5052517;28;20048;-61
2023/11/22 05:40:54;;;;;;;3.10;2.50;;;-1.40;99.90;;;;;;5050181;28;20073;-60
2023/11/22 05:43:25;;;;;;;2.28;2.08;;;-1.40;99.90;;;;;;5050876;28;20063;-61
2023/11/22 05:45:53;;;;;;;6.13;4.25;;;-1.50;99.90;;;;;;5056423;28;20052;-63
2023/11/22 05:48:20;;;;;;;4.57;3.15;;;-1.60;99.90;;;;;;5049742;28;20049;-62
2023/11/22 05:50:48;;;;;;;7.35;2.97;;;-1.60;99.90;;;;;;5044029;28;20040;-59
2023/11/22 05:53:19;;;;;;;5.43;2.60;;;-1.70;99.90;;;;;;5047412;28;20061;-60
2023/11/22 05:55:49;;;;;;;4.50;2.30;;;-1.70;99.90;;;;;;5048660;28;20108;-59
2023/11/22 05:58:17;;;;;;;4.00;2.97;;;-1.80;99.90;;;;;;5055380;28;20528;-59
2023/11/22 06:00:47;;;;;;;6.30;2.92;;;-1.90;99.90;;;;;;5051313;28;20095;-61
2023/11/22 06:03:14;;;;;;;;;;;-1.90;99.90;;;;;;5063788;28;20569;-60
2023/11/22 06:05:41;;;;;;;4.32;2.92;;;-2.00;99.90;;;;;;5052632;28;19925;-64
2023/11/22 06:08:11;;;;;;;3.97;3.30;;;-2.00;99.90;;;;;;5047996;28;20049;-61
2023/11/22 06:10:41;;;;;;;4.18;3.47;;;-2.00;99.90;;;;;;5047987;28;20561;-62
2023/11/22 06:13:08;;;;;;;4.93;2.90;;;-2.10;99.90;;;;;;5052086;28;20048;-60
2023/11/22 06:15:35;;;;;;;4.18;3.05;;;-2.10;99.90;;;;;;5050056;28;20041;-61
2023/11/22 06:18:02;;;;;;;7.13;4.90;;;-2.10;99.90;;;;;;5028943;28;20106;-62
2023/11/22 06:20:29;;;;;;;3.80;2.80;;;-2.10;99.90;;;;;;5032786;28;20461;-59
2023/11/22 06:22:56;;;;;;;3.40;3.08;;;-2.10;99.90;;;;;;5054295;28;21580;-63
2023/11/22 06:25:23;;;;;;;3.42;3.13;;;-2.10;99.90;;;;;;5053967;28;20037;-60
2023/11/22 06:27:50;;;;;;;3.40;3.10;;;-2.20;99.90;;;;;;5051253;28;20063;-59
2023/11/22 06:30:17;;;;;;;3.58;3.25;;;-2.20;99.90;;;;;;5050812;28;20468;-63
2023/11/22 06:32:44;;;;;;;3.25;2.92;;;-2.20;99.90;;;;;;5051153;28;20111;-60
2023/11/22 06:35:14;;;;;;;5.93;3.53;;;-2.20;99.90;;;;;;5048981;28;20507;-69
2023/11/22 06:37:41;;;;;;;10.68;3.13;;;-2.30;99.90;;;;;;5052857;28;20048;-61
2023/11/22 06:40:09;;;;;;;3.58;3.17;;;-2.30;99.90;;;;;;5046980;28;20045;-63
2023/11/22 06:42:36;;;;;;;5.45;3.55;;;-2.30;99.90;;;;;;5046354;28;20394;-66
2023/11/22 06:45:06;;;;;;;5.28;2.53;;;-2.30;99.90;;;;;;5042408;28;20041;-62
2023/11/22 06:47:33;;;;;;;5.10;3.83;;;-2.30;99.90;;;;;;5045737;28;20053;-62
2023/11/22 06:50:00;;;;;;;6.05;3.97;;;-2.30;99.90;;;;;;5051207;28;20048;-62
2023/11/22 06:52:27;;;;;;;3.67;3.35;;;-2.30;99.90;;;;;;5052421;28;20037;-59
2023/11/22 06:54:54;;;;;;;5.20;3.72;;;-2.30;99.90;;;;;;5052815;28;20045;-60
2023/11/22 06:57:28;;;;;;;7.05;3.25;;;-2.30;99.90;;;;;;5048555;28;20041;-60
2023/11/22 06:59:56;;;;;;;6.20;3.70;;;-2.30;99.90;;;;;;5045719;28;20115;-61
2023/11/22 07:02:24;;;;;;;6.40;3.42;;;-2.30;99.90;;;;;;5048774;28;20502;-61
2023/11/22 07:04:51;;;;;;;3.63;3.05;;;-2.20;99.90;;;;;;5048535;28;20033;-59
2023/11/22 07:07:19;;;;;;;12.05;4.32;;;-2.30;99.90;;;;;;5049838;28;20383;-59
2023/11/22 07:09:46;;;;;;;5.50;4.05;;;-2.30;99.90;;;;;;5048376;28;20056;-62
2023/11/22 07:12:13;;;;;;;4.38;3.97;;;-2.30;99.90;;;;;;5048939;28;20044;-63
2023/11/22 07:14:40;;;;;;;3.78;3.28;;;-2.20;99.90;;;;;;5063527;28;20041;-61
2023/11/22 07:17:07;;;;;;;3.90;3.28;;;-2.30;99.90;;;;;;5047945;28;20048;-60
2023/11/22 07:19:38;;;;;;;4.90;3.45;;;-2.30;99.90;;;;;;5048403;28;20045;-59
2023/11/22 07:22:15;;;;;;;14.80;3.95;;;-2.30;99.90;;;;;;5058214;28;20052;-63
2023/11/22 07:24:54;;;;;;;6.57;4.18;;;-2.30;99.90;;;;;;5028729;28;20061;-60
2023/11/22 07:27:22;;;;;;;4.57;4.18;;;-2.30;99.90;;;;;;5046766;28;20684;-61
2023/11/22 07:29:52;;;;;;;6.22;4.72;;;-2.30;99.90;;;;;;5047826;28;20086;-62
2023/11/22 07:32:20;;;;;;;7.68;3.90;;;-2.30;99.90;;;;;;5050540;28;20065;-60
2023/11/22 07:34:47;;;;;;;5.60;4.00;;;-2.30;99.90;;;;;;5051490;28;20462;-59
2023/11/22 07:37:14;;;;;;;4.25;2.88;;;-2.30;99.90;;;;;;5051153;28;20048;-63
2023/11/22 07:39:43;;;;;;;4.97;4.15;;;-2.30;99.90;;;;;;5048772;28;20087;-61
2023/11/22 07:42:10;;;;;;;4.55;3.80;;;-2.20;99.90;;;;;;5055231;28;20037;-59
2023/11/22 07:44:37;;;;;;;6.32;3.42;;;-2.20;99.90;;;;;;5049136;28;21450;-62
2023/11/22 07:47:08;;;;;;;5.18;4.13;;;-2.10;99.90;;;;;;5055672;28;20071;-59
2023/11/22 07:49:39;;;;;;;5.95;3.08;;;-2.10;99.90;;;;;;5057630;28;20518;-63
2023/11/22 07:52:06;;;;;;;5.97;3.22;;;-2.00;99.90;;;;;;5052278;28;20041;-59
2023/11/22 07:54:35;;;;;;;4.30;3.10;;;-1.90;99.90;;;;;;5053745;28;20041;-61
2023/11/22 07:57:02;;;;;;;3.55;2.90;;;-1.90;99.90;;;;;;5050519;28;20132;-60
2023/11/22 07:59:30;;;;;;;3.80;3.08;;;-1.80;99.90;;;;;;5049333;28;20045;-59
2023/11/22 08:01:57;;;;;;;6.93;4.10;;;-1.70;99.90;;;;;;5055734;28;20048;-60
2023/11/22 08:04:24;;;;;;;4.32;3.63;;;-1.60;99.90;;;;;;5053868;28;20470;-61
2023/11/22 08:06:52;;;;;;;3.63;3.25;;;-1.50;99.90;;;;;;5049564;28;20045;-59
2023/11/22 08:09:19;;;;;;;2.78;2.58;;;-1.40;99.90;;;;;;5050817;28;20053;-65
2023/11/22 08:11:47;;;;;;;6.43;3.72;;;-1.30;99.90;;;;;;5048370;28;20107;-63
2023/11/22 08:14:15;;;;;;;7.25;4.40;;;-1.20;99.90;;;;;;5057451;28;20123;-62
2023/11/22 08:16:42;;;;;;;9.10;5.30;;;-1.20;99.90;;;;;;5055470;28;20067;-60
2023/11/22 08:19:10;;;;;;;6.53;3.90;;;-1.10;99.90;;;;;;5053776;28;20638;-60
2023/11/22 08:21:38;;;;;;;4.60;3.45;;;-1.00;99.90;;;;;;5048579;28;20490;-67
2023/11/22 08:24:06;;;;;;;5.15;3.03;;;-1.00;99.90;;;;;;5045209;28;20455;-63
2023/11/22 08:26:33;;;;;;;4.13;3.13;;;-0.90;99.90;;;;;;5050807;28;20045;-59
2023/11/22 08:28:59;;;;;;;3.13;2.50;;;-0.80;99.90;;;;;;5055020;28;20098;-59
2023/11/22 08:31:26;;;;;;;3.90;2.92;;;-0.80;99.90;;;;;;5050063;28;20049;-61
2023/11/22 08:33:53;;;;;;;3.00;2.70;;;-0.80;99.90;;;;;;5049463;28;20052;-59
2023/11/22 08:36:20;;;;;;;2.50;2.15;;;-0.70;99.90;;;;;;5049845;28;20048;-60
2023/11/22 08:38:47;;;;;;;2.67;2.03;;;-0.60;99.90;;;;;;5050270;28;20545;-59
2023/11/22 08:41:14;;;;;;;4.55;2.25;;;-0.60;99.90;;;;;;5051410;28;20127;-61
2023/11/22 08:43:41;;;;;;;2.15;1.50;;;-0.60;99.90;;;;;;5051468;28;20067;-65
2023/11/22 08:46:08;;;;;;;2.50;2.10;;;-0.50;99.90;;;;;;5060109;28;20048;-60
2023/11/22 08:48:41;;;;;;;2.65;2.45;;;-0.50;99.90;;;;;;5056027;28;20064;-63
2023/11/22 08:51:10;;;;;;;3.05;2.13;;;-0.40;99.90;;;;;;5051445;28;20041;-62
2023/11/22 08:53:37;;;;;;;6.35;2.58;;;-0.40;99.90;;;;;;5052531;28;20045;-64
2023/11/22 08:56:05;;;;;;;1.83;1.30;;;-0.30;99.90;;;;;;5051488;28;20044;-62
2023/11/22 08:58:33;;;;;;;2.13;1.25;;;-0.20;99.90;;;;;;5054062;28;20045;-62
2023/11/22 09:01:01;;;;;;;2.17;1.92;;;-0.10;99.90;;;;;;5051148;28;20067;-60
2023/11/22 09:03:28;;;;;;;2.15;1.95;;;-0.10;99.90;;;;;;5051677;28;20041;-61
2023/11/22 09:05:56;;;;;;;2.30;1.95;;;0.00;99.90;;;;;;5060225;28;20045;-61
2023/11/22 09:08:23;;;;;;;1.48;1.23;;;0.10;99.90;;;;;;5048006;28;20487;-60
2023/11/22 09:10:54;;;;;;;2.78;1.73;;;0.10;99.90;;;;;;5048922;28;20052;-60
2023/11/22 09:13:22;;;;;;;1.83;1.27;;;0.20;99.90;;;;;;5026137;28;20036;-60
2023/11/22 09:15:49;;;;;;;2.13;1.45;;;0.30;99.90;;;;;;5056253;28;20068;-63
2023/11/22 09:18:16;;;;;;;2.33;1.67;;;0.40;99.90;;;;;;5053310;28;20040;-62
2023/11/22 09:20:44;;;;;;;2.42;1.67;;;0.50;99.90;;;;;;5050945;28;20044;-62
2023/11/22 09:23:11;;;;;;;2.78;1.50;;;0.60;99.90;;;;;;5034627;28;20048;-60
2023/11/22 09:25:38;;;;;;;2.13;1.30;;;0.70;99.90;;;;;;5032664;28;20049;-65
2023/11/22 09:28:07;;;;;;;1.92;1.50;;;0.80;99.90;;;;;;5036051;28;20457;-61
2023/11/22 09:30:35;;;;;;;1.73;1.00;;;0.90;99.90;;;;;;5026516;28;20048;-59
2023/11/22 09:33:07;;;;;;;1.98;1.45;;;1.00;99.90;;;;;;5029365;28;20059;-62
2023/11/22 09:35:35;;;;;;;1.58;1.05;;;1.10;99.90;;;;;;5027764;28;20038;-59
2023/11/22 09:38:04;;;;;;;2.50;1.67;;;1.10;99.90;;;;;;5029989;28;20573;-65
2023/11/22 09:40:33;;;;;;;2.78;1.80;;;1.20;99.90;;;;;;5027901;28;20087;-61
2023/11/22 09:43:02;;;;;;;1.13;0.85;;;1.20;99.90;;;;;;5036341;28;20095;-62
2023/11/22 09:45:30;;;;;;;1.20;0.77;;;1.30;99.90;;;;;;5033478;28;20487;-60
2023/11/22 09:47:58;;;;;;;1.58;1.02;;;1.30;99.90;;;;;;5029144;28;20093;-59
2023/11/22 09:50:40;;;;;;;;;;;1.30;99.90;;;;;;5033142;28;20143;-61
2023/11/22 09:53:19;;;;;;;1.95;1.73;;;1.30;99.90;;;;;;5032391;28;20594;-60
2023/11/22 09:55:46;;;;;;;3.13;1.50;;;1.40;99.90;;;;;;5029929;28;20030;-59
2023/11/22 09:58:16;;;;;;;2.05;1.52;;;1.40;99.90;;;;;;5039318;28;20128;-60
2023/11/22 10:00:43;;;;;;;1.60;1.48;;;1.40;99.90;;;;;;5028264;28;20487;-62
2023/11/22 10:03:13;;;;;;;3.00;1.63;;;1.50;99.90;;;;;;5027291;28;20069;-61
2023/11/22 10:05:44;;;;;;;5.78;1.35;;;1.60;99.90;;;;;;5031396;28;20047;-63
2023/11/22 10:08:10;;;;;;;1.80;1.45;;;1.60;99.90;;;;;;5028685;28;20060;-60
2023/11/22 10:10:38;;;;;;;2.50;1.42;;;1.60;99.90;;;;;;5028325;28;20051;-63
2023/11/22 10:13:05;;;;;;;2.10;1.60;;;1.70;99.90;;;;;;5026121;28;20057;-60
2023/11/22 10:15:32;;;;;;;1.95;1.77;;;1.70;99.90;;;;;;5033150;28;20045;-60
2023/11/22 10:18:02;;;;;;;3.30;1.30;;;1.70;99.90;;;;;;5029504;28;20152;-61
2023/11/22 10:20:40;;;;;;;2.78;1.52;;;1.80;99.90;;;;;;5028603;28;20045;-62
2023/11/22 10:23:14;;;;;;;4.47;1.35;;;1.80;99.90;;;;;;5017765;28;20049;-61
2023/11/22 10:25:47;;;;;;;1.52;1.23;;;1.80;99.90;;;;;;5034495;28;20052;-68
2023/11/22 10:28:14;;;;;;;2.22;2.03;;;1.80;99.90;;;;;;5034178;28;20091;-59
2023/11/22 10:30:42;;;;;;;2.45;1.75;;;1.90;99.90;;;;;;5033420;28;20044;-67
2023/11/22 10:33:13;;;;;;;3.15;1.83;;;2.00;99.90;;;;;;5032372;28;20056;-59
2023/11/22 10:35:48;;;;;;;2.17;1.40;;;2.00;99.90;;;;;;5024884;28;20563;-65
2023/11/22 10:38:16;;;;;;;1.48;1.38;;;2.10;99.90;;;;;;5032058;28;20041;-60
2023/11/22 10:40:45;;;;;;;2.45;1.77;;;2.10;99.90;;;;;;5027939;28;20042;-60
2023/11/22 10:43:13;;;;;;;1.95;1.75;;;2.10;99.90;;;;;;5031155;28;20132;-59
2023/11/22 10:45:45;;;;;;;2.00;1.80;;;2.10;99.90;;;;;;5030286;28;20121;-62
2023/11/22 10:48:18;;;;;;;3.38;1.48;;;2.10;99.90;;;;;;5028659;28;20128;-62
2023/11/22 10:50:45;;;;;;;2.47;1.85;;;2.10;99.90;;;;;;5030395;28;20041;-62
2023/11/22 10:53:16;;;;;;;2.75;1.90;;;2.10;99.90;;;;;;5029382;28;20104;-61
2023/11/22 10:55:48;;;;;;;1.73;1.63;;;2.10;99.90;;;;;;5032659;28;20128;-60
2023/11/22 10:58:17;;;;;;;1.48;1.30;;;2.10;99.90;;;;;;5030639;28;20049;-59
2023/11/22 11:00:46;;;;;;;3.20;1.30;;;2.10;99.90;;;;;;5028341;28;20075;-61
2023/11/22 11:03:21;;;;;;;2.38;1.67;;;2.20;99.90;;;;;;5035224;28;20100;-69
2023/11/22 11:05:58;;;;;;;2.10;1.13;;;2.20;99.90;;;;;;5030162;28;20038;-60
2023/11/22 11:08:29;;;;;;;2.83;1.27;;;2.20;99.90;;;;;;5038588;28;20413;-59
2023/11/22 11:10:58;;;;;;;6.35;1.70;;;2.10;99.90;;;;;;5023845;28;20103;-60
2023/11/22 11:13:27;;;;;;;3.88;1.45;;;2.10;99.90;;;;;;5024161;28;20057;-59
2023/11/22 11:15:54;;;;;;;2.42;1.95;;;2.10;99.90;;;;;;5034744;28;20100;-62
2023/11/22 11:18:21;;;;;;;1.52;1.23;;;2.00;99.90;;;;;;5029737;28;20100;-59
2023/11/22 11:20:49;;;;;;;2.00;1.40;;;2.00;99.90;;;;;;5052319;28;20049;-59
2023/11/22 11:23:20;;;;;;;3.05;1.80;;;2.00;99.90;;;;;;5051023;28;20040;-60
2023/11/22 11:25:52;;;;;;;2.15;1.52;;;2.00;99.90;;;;;;5050792;28;20041;-60
2023/11/22 11:28:19;;;;;;;2.17;1.42;;;2.00;99.90;;;;;;5054067;28;20041;-64
2023/11/22 11:30:48;;;;;;;1.83;1.20;;;1.90;99.90;;;;;;5052822;28;20049;-59
2023/11/22 11:33:32;;;;;;;2.95;1.60;;;1.90;99.90;;;;;;5057500;28;20094;-59
2023/11/22 11:36:03;;;;;;;1.98;1.67;;;1.90;99.90;;;;;;5039217;28;20091;-63
2023/11/22 11:38:34;;;;;;;1.92;1.65;;;1.90;99.90;;;;;;5049132;28;20068;-59
2023/11/22 11:41:11;;;;;;;5.00;1.50;;;1.90;99.90;;;;;;5056905;28;20048;-67
2023/11/22 11:43:47;;;;;;;2.58;1.10;;;1.90;99.90;;;;;;5049156;28;20071;-65
2023/11/22 11:46:14;;;;;;;2.50;1.65;;;1.90;99.90;;;;;;5049827;28;20124;-60
2023/11/22 11:48:48;;;;;;;2.88;1.80;;;1.90;99.90;;;;;;5058513;28;20040;-66
2023/11/22 11:51:16;;;;;;;1.60;1.50;;;1.80;99.90;;;;;;5051680;28;20037;-61
2023/11/22 11:53:45;;;;;;;2.55;1.67;;;1.80;99.90;;;;;;5057061;28;20055;-61
2023/11/22 11:56:13;;;;;;;4.60;2.33;;;1.80;99.90;;;;;;5054737;28;20531;-61
2023/11/22 11:58:43;;;;;;;3.63;1.38;;;1.80;99.90;;;;;;5050993;28;20044;-66
2023/11/22 12:01:16;;;;;;;3.08;2.35;;;1.80;99.90;;;;;;5053885;28;20079;-66
2023/11/22 12:03:44;;;;;;;2.10;1.90;;;1.80;99.90;;;;;;5066988;28;20433;-63
2023/11/22 12:06:15;;;;;;;4.60;2.38;;;1.80;99.90;;;;;;5049624;28;20123;-61
2023/11/22 12:08:42;;;;;;;4.13;2.25;;;1.80;99.90;;;;;;5054775;28;20111;-64
2023/11/22 12:11:10;;;;;;;3.88;2.45;;;1.80;99.90;;;;;;5050946;28;20585;-61
2023/11/22 12:13:38;;;;;;;3.53;2.35;;;1.80;99.90;;;;;;5056907;28;20041;-61
2023/11/22 12:16:10;;;;;;;2.25;2.03;;;1.80;99.90;;;;;;5053366;28;20119;-63
2023/11/22 12:18:45;;;;;;;6.60;2.55;;;1.80;99.90;;;;;;5052941;28;20053;-66
2023/11/22 12:21:13;;;;;;;4.13;2.05;;;1.80;99.90;;;;;;5053423;28;20052;-61
2023/11/22 12:23:41;;;;;;;2.20;2.00;;;1.80;99.90;;;;;;5051883;28;20079;-66
2023/11/22 12:26:19;;;;;;;4.72;2.25;;;1.90;99.90;;;;;;5059441;28;20037;-60
2023/11/22 12:28:48;;;;;;;4.70;2.75;;;1.80;99.90;;;;;;5049259;28;20380;-62
2023/11/22 12:31:34;;;;;;;3.30;2.38;;;1.80;99.90;;;;;;5054766;28;20049;-60
2023/11/22 12:34:03;;;;;;;3.15;1.77;;;1.90;99.90;;;;;;5048238;28;20042;-61
2023/11/22 12:36:30;;;;;;;4.35;1.98;;;1.90;99.90;;;;;;5051550;28;20123;-63
2023/11/22 12:39:00;;;;;;;2.58;1.95;;;1.90;99.90;;;;;;5052169;28;20136;-63
2023/11/22 12:41:29;;;;;;;3.42;2.30;;;1.90;99.90;;;;;;5052562;28;20143;-59
2023/11/22 12:44:04;;;;;;;2.33;1.92;;;1.80;99.90;;;;;;5050933;28;20047;-62
2023/11/22 12:46:56;;;;;;;3.30;1.80;;;1.90;99.90;;;;;;5059052;28;20049;-60
2023/11/22 12:49:25;;;;;;;2.95;2.13;;;1.90;99.90;;;;;;5050762;28;20049;-62
2023/11/22 12:51:54;;;;;;;3.58;2.17;;;1.90;99.90;;;;;;5046363;28;20132;-62
2023/11/22 12:54:21;;;;;;;1.95;1.70;;;1.80;99.90;;;;;;5052519;28;20045;-63
2023/11/22 12:56:58;;;;;;;2.08;1.40;;;1.90;99.90;;;;;;5049953;28;20045;-64
2023/11/22 12:59:33;;;;;;;4.60;1.73;;;1.90;99.90;;;;;;5057104;28;20052;-61